sensor_id;sensor_type;location;lat;lon;timestamp;pressure;altitude;pressure_sealevel;temperature
73673;BMP280;61972;19.480;-99.240;2023-04-24T00:01:00;77357.22;;;33.74
73673;BMP280;61972;19.480;-99.240;2023-04-24T00:03:26;77364.50;;;33.86
73673;BMP280;61972;19.480;-99.240;2023-04-24T00:05:54;77374.94;;;33.98
73673;BMP280;61972;19.480;-99.240;2023-04-24T00:08:20;77371.69;;;34.13
73673;BMP280;61972;19.480;-99.240;2023-04-24T00:10:48;77376.84;;;34.25
73673;BMP280;61972;19.480;-99.240;2023-04-24T00:13:14;77377.78;;;34.38
73673;BMP280;61972;19.480;-99.240;2023-04-24T00:15:40;77377.16;;;34.53
73673;BMP280;61972;19.480;-99.240;2023-04-24T00:18:06;77389.72;;;34.64
73673;BMP280;61972;19.480;-99.240;2023-04-24T00:20:33;77389.00;;;34.76
73673;BMP280;61972;19.480;-99.240;2023-04-24T00:23:01;77398.34;;;34.88
73673;BMP280;61972;19.480;-99.240;2023-04-24T00:25:27;77397.00;;;34.96
73673;BMP280;61972;19.480;-99.240;2023-04-24T00:27:53;77397.28;;;35.07
73673;BMP280;61972;19.480;-99.240;2023-04-24T00:30:19;77409.16;;;35.13
73673;BMP280;61972;19.480;-99.240;2023-04-24T00:32:45;77408.22;;;35.17
73673;BMP280;61972;19.480;-99.240;2023-04-24T00:35:11;77403.47;;;35.17
73673;BMP280;61972;19.480;-99.240;2023-04-24T00:37:38;77410.38;;;35.19
73673;BMP280;61972;19.480;-99.240;2023-04-24T00:40:04;77403.47;;;35.17
73673;BMP280;61972;19.480;-99.240;2023-04-24T00:42:31;77420.88;;;35.14
73673;BMP280;61972;19.480;-99.240;2023-04-24T00:44:58;77417.00;;;35.08
73673;BMP280;61972;19.480;-99.240;2023-04-24T00:47:25;77421.53;;;34.99
73673;BMP280;61972;19.480;-99.240;2023-04-24T00:49:51;77423.41;;;34.91
73673;BMP280;61972;19.480;-99.240;2023-04-24T00:52:17;77424.75;;;34.82
73673;BMP280;61972;19.480;-99.240;2023-04-24T00:54:44;77425.09;;;34.75
73673;BMP280;61972;19.480;-99.240;2023-04-24T00:57:14;77431.25;;;34.69
73673;BMP280;61972;19.480;-99.240;2023-04-24T00:59:42;77425.13;;;34.60
73673;BMP280;61972;19.480;-99.240;2023-04-24T01:02:09;77431.88;;;34.54
73673;BMP280;61972;19.480;-99.240;2023-04-24T01:04:36;77430.59;;;34.48
73673;BMP280;61972;19.480;-99.240;2023-04-24T01:07:03;77433.03;;;34.40
73673;BMP280;61972;19.480;-99.240;2023-04-24T01:09:40;77440.19;;;34.32
73673;BMP280;61972;19.480;-99.240;2023-04-24T01:12:09;77440.97;;;34.23
73673;BMP280;61972;19.480;-99.240;2023-04-24T01:14:36;77447.59;;;34.14
73673;BMP280;61972;19.480;-99.240;2023-04-24T01:17:03;77452.56;;;34.04
73673;BMP280;61972;19.480;-99.240;2023-04-24T01:19:29;77462.28;;;33.93
73673;BMP280;61972;19.480;-99.240;2023-04-24T01:21:58;77461.50;;;33.85
73673;BMP280;61972;19.480;-99.240;2023-04-24T01:24:25;77476.03;;;33.76
73673;BMP280;61972;19.480;-99.240;2023-04-24T01:26:51;77472.03;;;33.67
73673;BMP280;61972;19.480;-99.240;2023-04-24T01:29:17;77470.13;;;33.58
73673;BMP280;61972;19.480;-99.240;2023-04-24T01:31:43;77482.56;;;33.50
73673;BMP280;61972;19.480;-99.240;2023-04-24T01:34:10;77489.22;;;33.44
73673;BMP280;61972;19.480;-99.240;2023-04-24T01:36:36;77487.41;;;33.37
73673;BMP280;61972;19.480;-99.240;2023-04-24T01:39:03;77492.97;;;33.30
73673;BMP280;61972;19.480;-99.240;2023-04-24T01:41:30;77500.19;;;33.24
73673;BMP280;61972;19.480;-99.240;2023-04-24T01:43:57;77504.75;;;33.19
73673;BMP280;61972;19.480;-99.240;2023-04-24T01:46:24;77503.03;;;33.15
73673;BMP280;61972;19.480;-99.240;2023-04-24T01:48:51;77508.13;;;33.10
73673;BMP280;61972;19.480;-99.240;2023-04-24T01:51:18;77513.78;;;33.05
73673;BMP280;61972;19.480;-99.240;2023-04-24T01:53:44;77513.13;;;33.02
73673;BMP280;61972;19.480;-99.240;2023-04-24T01:56:11;77520.06;;;33.03
73673;BMP280;61972;19.480;-99.240;2023-04-24T01:58:37;77520.72;;;33.06
73673;BMP280;61972;19.480;-99.240;2023-04-24T02:01:03;77527.69;;;33.08
73673;BMP280;61972;19.480;-99.240;2023-04-24T02:03:29;77531.97;;;33.10
73673;BMP280;61972;19.480;-99.240;2023-04-24T02:05:55;77523.00;;;33.11
73673;BMP280;61972;19.480;-99.240;2023-04-24T02:08:21;77529.31;;;33.10
73673;BMP280;61972;19.480;-99.240;2023-04-24T02:10:48;77529.75;;;33.07
73673;BMP280;61972;19.480;-99.240;2023-04-24T02:13:14;77532.88;;;33.05
73673;BMP280;61972;19.480;-99.240;2023-04-24T02:15:40;77529.03;;;33.02
73673;BMP280;61972;19.480;-99.240;2023-04-24T02:18:06;77525.72;;;32.99
73673;BMP280;61972;19.480;-99.240;2023-04-24T02:20:32;77527.75;;;32.96
73673;BMP280;61972;19.480;-99.240;2023-04-24T02:23:01;77529.19;;;32.92
73673;BMP280;61972;19.480;-99.240;2023-04-24T02:25:27;77535.41;;;32.88
73673;BMP280;61972;19.480;-99.240;2023-04-24T02:27:53;77529.00;;;32.87
73673;BMP280;61972;19.480;-99.240;2023-04-24T02:30:19;77534.47;;;32.92
73673;BMP280;61972;19.480;-99.240;2023-04-24T02:32:45;77533.59;;;32.96
73673;BMP280;61972;19.480;-99.240;2023-04-24T02:35:12;77530.03;;;33.00
73673;BMP280;61972;19.480;-99.240;2023-04-24T02:37:38;77533.31;;;33.03
73673;BMP280;61972;19.480;-99.240;2023-04-24T02:40:04;77540.34;;;33.07
73673;BMP280;61972;19.480;-99.240;2023-04-24T02:42:31;77541.00;;;33.11
73673;BMP280;61972;19.480;-99.240;2023-04-24T02:44:57;77541.66;;;33.14
73673;BMP280;61972;19.480;-99.240;2023-04-24T02:47:24;77533.69;;;33.14
73673;BMP280;61972;19.480;-99.240;2023-04-24T02:49:50;77543.84;;;33.16
73673;BMP280;61972;19.480;-99.240;2023-04-24T02:52:16;77543.38;;;33.18
73673;BMP280;61972;19.480;-99.240;2023-04-24T02:54:42;77535.44;;;33.18
73673;BMP280;61972;19.480;-99.240;2023-04-24T02:57:09;77541.28;;;33.18
73673;BMP280;61972;19.480;-99.240;2023-04-24T02:59:35;77539.09;;;33.16
73673;BMP280;61972;19.480;-99.240;2023-04-24T03:02:01;77544.94;;;33.17
73673;BMP280;61972;19.480;-99.240;2023-04-24T03:04:27;77544.41;;;33.16
73673;BMP280;61972;19.480;-99.240;2023-04-24T03:06:53;77549.13;;;33.16
73673;BMP280;61972;19.480;-99.240;2023-04-24T03:09:23;77549.13;;;33.16
73673;BMP280;61972;19.480;-99.240;2023-04-24T03:11:49;77549.13;;;33.16
73673;BMP280;61972;19.480;-99.240;2023-04-24T03:14:16;77548.69;;;33.18
73673;BMP280;61972;19.480;-99.240;2023-04-24T03:16:42;77551.91;;;33.18
73673;BMP280;61972;19.480;-99.240;2023-04-24T03:19:08;77552.97;;;33.19
73673;BMP280;61972;19.480;-99.240;2023-04-24T03:21:34;77554.63;;;33.21
73673;BMP280;61972;19.480;-99.240;2023-04-24T03:24:01;77555.09;;;33.19
73673;BMP280;61972;19.480;-99.240;2023-04-24T03:26:27;77546.03;;;33.18
73673;BMP280;61972;19.480;-99.240;2023-04-24T03:28:53;77539.53;;;33.14
73673;BMP280;61972;19.480;-99.240;2023-04-24T03:31:20;77543.09;;;33.10
73673;BMP280;61972;19.480;-99.240;2023-04-24T03:33:46;77546.22;;;33.08
73673;BMP280;61972;19.480;-99.240;2023-04-24T03:36:12;77543.09;;;33.10
73673;BMP280;61972;19.480;-99.240;2023-04-24T03:38:38;77546.47;;;33.16
73673;BMP280;61972;19.480;-99.240;2023-04-24T03:41:05;77547.34;;;33.24
73673;BMP280;61972;19.480;-99.240;2023-04-24T03:43:31;77555.66;;;33.34
73673;BMP280;61972;19.480;-99.240;2023-04-24T03:45:59;77553.94;;;33.45
73673;BMP280;61972;19.480;-99.240;2023-04-24T03:48:25;77544.78;;;33.56
73673;BMP280;61972;19.480;-99.240;2023-04-24T03:50:51;77549.91;;;33.66
73673;BMP280;61972;19.480;-99.240;2023-04-24T03:53:20;77559.31;;;33.77
73673;BMP280;61972;19.480;-99.240;2023-04-24T03:55:46;77561.22;;;33.86
73673;BMP280;61972;19.480;-99.240;2023-04-24T03:58:12;77557.31;;;33.95
73673;BMP280;61972;19.480;-99.240;2023-04-24T04:00:41;77565.06;;;34.05
73673;BMP280;61972;19.480;-99.240;2023-04-24T04:03:07;77565.31;;;34.13
73673;BMP280;61972;19.480;-99.240;2023-04-24T04:05:33;77571.97;;;34.21
73673;BMP280;61972;19.480;-99.240;2023-04-24T04:07:59;77567.47;;;34.30
73673;BMP280;61972;19.480;-99.240;2023-04-24T04:10:25;77572.03;;;34.39
73673;BMP280;61972;19.480;-99.240;2023-04-24T04:12:52;77570.66;;;34.45
73673;BMP280;61972;19.480;-99.240;2023-04-24T04:15:18;77574.47;;;34.49
73673;BMP280;61972;19.480;-99.240;2023-04-24T04:17:44;77568.78;;;34.53
73673;BMP280;61972;19.480;-99.240;2023-04-24T04:20:11;77580.50;;;34.54
73673;BMP280;61972;19.480;-99.240;2023-04-24T04:22:37;77574.56;;;34.51
73673;BMP280;61972;19.480;-99.240;2023-04-24T04:25:04;77578.16;;;34.47
73673;BMP280;61972;19.480;-99.240;2023-04-24T04:27:30;77582.84;;;34.44
73673;BMP280;61972;19.480;-99.240;2023-04-24T04:30:01;77583.81;;;34.42
73673;BMP280;61972;19.480;-99.240;2023-04-24T04:32:33;77583.81;;;34.42
73673;BMP280;61972;19.480;-99.240;2023-04-24T04:35:00;77585.50;;;34.44
73673;BMP280;61972;19.480;-99.240;2023-04-24T04:37:34;77581.81;;;34.45
73673;BMP280;61972;19.480;-99.240;2023-04-24T04:40:01;77581.97;;;34.51
73673;BMP280;61972;19.480;-99.240;2023-04-24T04:42:33;77588.56;;;34.57
73673;BMP280;61972;19.480;-99.240;2023-04-24T04:45:07;77586.16;;;34.64
73673;BMP280;61972;19.480;-99.240;2023-04-24T04:47:37;77590.63;;;34.71
73673;BMP280;61972;19.480;-99.240;2023-04-24T04:50:04;77594.00;;;34.77
73673;BMP280;61972;19.480;-99.240;2023-04-24T04:52:31;77594.16;;;34.82
73673;BMP280;61972;19.480;-99.240;2023-04-24T04:54:57;77594.31;;;34.87
73673;BMP280;61972;19.480;-99.240;2023-04-24T04:57:23;77595.50;;;34.91
73673;BMP280;61972;19.480;-99.240;2023-04-24T04:59:49;77595.59;;;34.93
73673;BMP280;61972;19.480;-99.240;2023-04-24T05:02:15;77596.69;;;34.94
73673;BMP280;61972;19.480;-99.240;2023-04-24T05:04:41;77600.50;;;34.98
73673;BMP280;61972;19.480;-99.240;2023-04-24T05:07:07;77598.53;;;35.03
73673;BMP280;61972;19.480;-99.240;2023-04-24T05:09:33;77599.72;;;35.07
73673;BMP280;61972;19.480;-99.240;2023-04-24T05:12:00;77593.47;;;35.11
73673;BMP280;61972;19.480;-99.240;2023-04-24T05:14:26;77585.59;;;35.14
73673;BMP280;61972;19.480;-99.240;2023-04-24T05:16:52;77591.53;;;35.17
73673;BMP280;61972;19.480;-99.240;2023-04-24T05:19:18;77585.75;;;35.19
73673;BMP280;61972;19.480;-99.240;2023-04-24T05:21:44;77586.28;;;35.19
73673;BMP280;61972;19.480;-99.240;2023-04-24T05:24:10;77584.19;;;35.20
73673;BMP280;61972;19.480;-99.240;2023-04-24T05:26:37;77593.28;;;35.21
73673;BMP280;61972;19.480;-99.240;2023-04-24T05:29:03;77585.91;;;35.24
73673;BMP280;61972;19.480;-99.240;2023-04-24T05:31:29;77589.19;;;35.27
73673;BMP280;61972;19.480;-99.240;2023-04-24T05:33:56;77589.28;;;35.30
73673;BMP280;61972;19.480;-99.240;2023-04-24T05:36:22;77581.38;;;35.32
73673;BMP280;61972;19.480;-99.240;2023-04-24T05:38:48;77585.66;;;35.34
73673;BMP280;61972;19.480;-99.240;2023-04-24T05:41:14;77590.47;;;35.33
73673;BMP280;61972;19.480;-99.240;2023-04-24T05:43:40;77578.09;;;35.29
73673;BMP280;61972;19.480;-99.240;2023-04-24T05:46:06;77579.53;;;35.23
73673;BMP280;61972;19.480;-99.240;2023-04-24T05:48:33;77569.81;;;35.19
73673;BMP280;61972;19.480;-99.240;2023-04-24T05:50:59;77569.66;;;35.14
73673;BMP280;61972;19.480;-99.240;2023-04-24T05:53:25;77571.06;;;35.08
73673;BMP280;61972;19.480;-99.240;2023-04-24T05:55:51;77570.25;;;34.99
73673;BMP280;61972;19.480;-99.240;2023-04-24T05:58:17;77579.13;;;34.93
73673;BMP280;61972;19.480;-99.240;2023-04-24T06:00:43;77573.00;;;34.84
73673;BMP280;61972;19.480;-99.240;2023-04-24T06:03:11;77567.44;;;34.77
73673;BMP280;61972;19.480;-99.240;2023-04-24T06:05:38;77568.22;;;34.68
73673;BMP280;61972;19.480;-99.240;2023-04-24T06:08:04;77571.13;;;34.60
73673;BMP280;61972;19.480;-99.240;2023-04-24T06:10:30;77569.25;;;34.51
73673;BMP280;61972;19.480;-99.240;2023-04-24T06:12:56;77567.91;;;34.42
73673;BMP280;61972;19.480;-99.240;2023-04-24T06:15:30;77566.66;;;34.36
73673;BMP280;61972;19.480;-99.240;2023-04-24T06:17:57;77566.41;;;34.29
73673;BMP280;61972;19.480;-99.240;2023-04-24T06:20:23;77562.44;;;34.22
73673;BMP280;61972;19.480;-99.240;2023-04-24T06:22:49;77562.28;;;34.17
73673;BMP280;61972;19.480;-99.240;2023-04-24T06:25:15;77565.31;;;34.13
73673;BMP280;61972;19.480;-99.240;2023-04-24T06:27:42;77561.38;;;34.06
73673;BMP280;61972;19.480;-99.240;2023-04-24T06:30:08;77562.88;;;34.03
73673;BMP280;61972;19.480;-99.240;2023-04-24T06:32:34;77553.16;;;33.99
73673;BMP280;61972;19.480;-99.240;2023-04-24T06:35:01;77549.34;;;33.95
73673;BMP280;61972;19.480;-99.240;2023-04-24T06:37:27;77558.19;;;33.91
73673;BMP280;61972;19.480;-99.240;2023-04-24T06:39:53;77553.34;;;33.89
73673;BMP280;61972;19.480;-99.240;2023-04-24T06:42:19;77543.13;;;33.84
73673;BMP280;61972;19.480;-99.240;2023-04-24T06:44:47;77546.22;;;33.82
73673;BMP280;61972;19.480;-99.240;2023-04-24T06:47:13;77548.78;;;33.80
73673;BMP280;61972;19.480;-99.240;2023-04-24T06:49:39;77549.72;;;33.76
73673;BMP280;61972;19.480;-99.240;2023-04-24T06:52:06;77540.13;;;33.74
73673;BMP280;61972;19.480;-99.240;2023-04-24T06:54:32;77549.09;;;33.73
73673;BMP280;61972;19.480;-99.240;2023-04-24T06:56:59;77548.53;;;33.72
73673;BMP280;61972;19.480;-99.240;2023-04-24T06:59:26;77544.78;;;33.71
73673;BMP280;61972;19.480;-99.240;2023-04-24T07:01:54;77546.31;;;33.70
73673;BMP280;61972;19.480;-99.240;2023-04-24T07:04:20;77540.41;;;33.67
73673;BMP280;61972;19.480;-99.240;2023-04-24T07:06:47;77545.69;;;33.67
73673;BMP280;61972;19.480;-99.240;2023-04-24T07:09:15;77544.63;;;33.66
73673;BMP280;61972;19.480;-99.240;2023-04-24T07:11:45;77551.47;;;33.65
73673;BMP280;61972;19.480;-99.240;2023-04-24T07:14:11;77546.63;;;33.63
73673;BMP280;61972;19.480;-99.240;2023-04-24T07:16:38;77550.81;;;33.62
73673;BMP280;61972;19.480;-99.240;2023-04-24T07:19:04;77550.81;;;33.62
73673;BMP280;61972;19.480;-99.240;2023-04-24T07:21:31;77554.47;;;33.60
73673;BMP280;61972;19.480;-99.240;2023-04-24T07:23:58;77551.28;;;33.60
73673;BMP280;61972;19.480;-99.240;2023-04-24T07:26:25;77551.28;;;33.60
73673;BMP280;61972;19.480;-99.240;2023-04-24T07:28:51;77547.00;;;33.58
73673;BMP280;61972;19.480;-99.240;2023-04-24T07:31:20;77547.00;;;33.58
73673;BMP280;61972;19.480;-99.240;2023-04-24T07:33:46;77547.00;;;33.58
73673;BMP280;61972;19.480;-99.240;2023-04-24T07:36:12;77551.19;;;33.57
73673;BMP280;61972;19.480;-99.240;2023-04-24T07:38:42;77550.16;;;33.59
73673;BMP280;61972;19.480;-99.240;2023-04-24T07:41:08;77547.00;;;33.58
73673;BMP280;61972;19.480;-99.240;2023-04-24T07:43:35;77546.44;;;33.58
73673;BMP280;61972;19.480;-99.240;2023-04-24T07:46:01;77544.78;;;33.56
73673;BMP280;61972;19.480;-99.240;2023-04-24T07:48:27;77534.72;;;33.57
73673;BMP280;61972;19.480;-99.240;2023-04-24T07:50:53;77539.47;;;33.56
73673;BMP280;61972;19.480;-99.240;2023-04-24T07:53:20;77536.28;;;33.56
73673;BMP280;61972;19.480;-99.240;2023-04-24T07:55:46;77543.16;;;33.55
73673;BMP280;61972;19.480;-99.240;2023-04-24T07:58:12;77542.03;;;33.54
73673;BMP280;61972;19.480;-99.240;2023-04-24T08:00:38;77536.75;;;33.54
73673;BMP280;61972;19.480;-99.240;2023-04-24T08:03:04;77540.97;;;33.53
73673;BMP280;61972;19.480;-99.240;2023-04-24T08:05:31;77530.81;;;33.51
73673;BMP280;61972;19.480;-99.240;2023-04-24T08:07:58;77533.47;;;33.51
73673;BMP280;61972;19.480;-99.240;2023-04-24T08:10:24;77538.69;;;33.48
73673;BMP280;61972;19.480;-99.240;2023-04-24T08:12:51;77541.34;;;33.48
73673;BMP280;61972;19.480;-99.240;2023-04-24T08:15:17;77539.13;;;33.46
73673;BMP280;61972;19.480;-99.240;2023-04-24T08:17:44;77541.66;;;33.43
73673;BMP280;61972;19.480;-99.240;2023-04-24T08:20:11;77541.66;;;33.43
73673;BMP280;61972;19.480;-99.240;2023-04-24T08:22:43;77546.34;;;33.40
73673;BMP280;61972;19.480;-99.240;2023-04-24T08:25:10;77543.56;;;33.38
73673;BMP280;61972;19.480;-99.240;2023-04-24T08:27:36;77549.91;;;33.36
73673;BMP280;61972;19.480;-99.240;2023-04-24T08:30:03;77556.09;;;33.32
73673;BMP280;61972;19.480;-99.240;2023-04-24T08:32:30;77545.66;;;33.22
73673;BMP280;61972;19.480;-99.240;2023-04-24T08:34:57;77557.53;;;33.14
73673;BMP280;61972;19.480;-99.240;2023-04-24T08:37:23;77553.50;;;33.05
73673;BMP280;61972;19.480;-99.240;2023-04-24T08:39:50;77559.31;;;32.91
73673;BMP280;61972;19.480;-99.240;2023-04-24T08:42:17;77560.34;;;32.77
73673;BMP280;61972;19.480;-99.240;2023-04-24T08:44:44;77564.50;;;32.61
73673;BMP280;61972;19.480;-99.240;2023-04-24T08:47:11;77568.66;;;32.45
73673;BMP280;61972;19.480;-99.240;2023-04-24T08:49:38;77557.47;;;32.29
73673;BMP280;61972;19.480;-99.240;2023-04-24T08:52:05;77568.94;;;32.13
73673;BMP280;61972;19.480;-99.240;2023-04-24T08:54:41;77571.41;;;31.96
73673;BMP280;61972;19.480;-99.240;2023-04-24T08:57:11;77571.88;;;31.81
73673;BMP280;61972;19.480;-99.240;2023-04-24T08:59:40;77573.31;;;31.65
73673;BMP280;61972;19.480;-99.240;2023-04-24T09:02:10;77574.31;;;31.51
73673;BMP280;61972;19.480;-99.240;2023-04-24T09:04:37;77575.81;;;31.38
73673;BMP280;61972;19.480;-99.240;2023-04-24T09:07:06;77574.16;;;31.24
73673;BMP280;61972;19.480;-99.240;2023-04-24T09:09:32;77577.88;;;31.13
73673;BMP280;61972;19.480;-99.240;2023-04-24T09:11:59;77577.88;;;31.01
73673;BMP280;61972;19.480;-99.240;2023-04-24T09:14:26;77573.66;;;30.89
73673;BMP280;61972;19.480;-99.240;2023-04-24T09:16:53;77572.66;;;30.79
73673;BMP280;61972;19.480;-99.240;2023-04-24T09:19:19;77564.28;;;30.68
73673;BMP280;61972;19.480;-99.240;2023-04-24T09:21:47;77574.34;;;30.58
73673;BMP280;61972;19.480;-99.240;2023-04-24T09:24:20;77578.03;;;30.47
73673;BMP280;61972;19.480;-99.240;2023-04-24T09:26:56;77589.22;;;30.38
73673;BMP280;61972;19.480;-99.240;2023-04-24T09:29:24;77590.38;;;30.29
73673;BMP280;61972;19.480;-99.240;2023-04-24T09:31:50;77590.03;;;30.21
73673;BMP280;61972;19.480;-99.240;2023-04-24T09:34:22;77596.56;;;30.15
73673;BMP280;61972;19.480;-99.240;2023-04-24T09:36:48;77591.06;;;30.10
73673;BMP280;61972;19.480;-99.240;2023-04-24T09:39:16;77592.47;;;30.06
73673;BMP280;61972;19.480;-99.240;2023-04-24T09:41:50;77590.16;;;30.02
73673;BMP280;61972;19.480;-99.240;2023-04-24T09:44:21;77600.53;;;29.99
73673;BMP280;61972;19.480;-99.240;2023-04-24T09:47:08;77596.69;;;29.95
73673;BMP280;61972;19.480;-99.240;2023-04-24T09:49:35;77600.88;;;29.94
73673;BMP280;61972;19.480;-99.240;2023-04-24T09:52:09;77605.44;;;29.91
73673;BMP280;61972;19.480;-99.240;2023-04-24T09:54:37;77601.69;;;29.90
73673;BMP280;61972;19.480;-99.240;2023-04-24T09:57:04;77610.03;;;29.88
73673;BMP280;61972;19.480;-99.240;2023-04-24T09:59:30;77607.84;;;29.86
73673;BMP280;61972;19.480;-99.240;2023-04-24T10:01:56;77608.25;;;29.84
73673;BMP280;61972;19.480;-99.240;2023-04-24T10:04:25;77605.06;;;29.84
73673;BMP280;61972;19.480;-99.240;2023-04-24T10:06:54;77607.03;;;29.81
73673;BMP280;61972;19.480;-99.240;2023-04-24T10:09:25;77601.22;;;29.80
73673;BMP280;61972;19.480;-99.240;2023-04-24T10:11:53;77609.53;;;29.78
73673;BMP280;61972;19.480;-99.240;2023-04-24T10:14:24;77607.88;;;29.76
73673;BMP280;61972;19.480;-99.240;2023-04-24T10:16:53;77614.69;;;29.75
73673;BMP280;61972;19.480;-99.240;2023-04-24T10:19:19;77613.00;;;29.74
73673;BMP280;61972;19.480;-99.240;2023-04-24T10:21:45;77614.41;;;29.70
73673;BMP280;61972;19.480;-99.240;2023-04-24T10:24:18;77610.16;;;29.69
73673;BMP280;61972;19.480;-99.240;2023-04-24T10:26:48;77607.91;;;29.67
73673;BMP280;61972;19.480;-99.240;2023-04-24T10:29:16;77602.09;;;29.66
73673;BMP280;61972;19.480;-99.240;2023-04-24T10:31:43;77606.81;;;29.66
73673;BMP280;61972;19.480;-99.240;2023-04-24T10:34:11;77604.06;;;29.63
73673;BMP280;61972;19.480;-99.240;2023-04-24T10:36:50;77601.44;;;29.63
73673;BMP280;61972;19.480;-99.240;2023-04-24T10:39:16;77597.69;;;29.62
73673;BMP280;61972;19.480;-99.240;2023-04-24T10:41:43;77594.38;;;29.59
73673;BMP280;61972;19.480;-99.240;2023-04-24T10:44:11;77599.66;;;29.59
73673;BMP280;61972;19.480;-99.240;2023-04-24T10:46:39;77603.25;;;29.57
73673;BMP280;61972;19.480;-99.240;2023-04-24T10:49:06;77600.06;;;29.57
73673;BMP280;61972;19.480;-99.240;2023-04-24T10:51:51;77594.66;;;29.54
73673;BMP280;61972;19.480;-99.240;2023-04-24T10:54:42;77604.09;;;29.53
73673;BMP280;61972;19.480;-99.240;2023-04-24T10:59:46;77601.34;;;29.51
73673;BMP280;61972;19.480;-99.240;2023-04-24T11:02:14;77599.66;;;29.49
73673;BMP280;61972;19.480;-99.240;2023-04-24T11:04:41;77597.50;;;29.47
73673;BMP280;61972;19.480;-99.240;2023-04-24T11:07:11;77596.38;;;29.46
73673;BMP280;61972;19.480;-99.240;2023-04-24T11:09:38;77597.91;;;29.45
73673;BMP280;61972;19.480;-99.240;2023-04-24T11:12:11;77599.44;;;29.44
73673;BMP280;61972;19.480;-99.240;2023-04-24T11:20:04;77596.94;;;29.37
73673;BMP280;61972;19.480;-99.240;2023-04-24T11:22:36;77601.13;;;29.36
73673;BMP280;61972;19.480;-99.240;2023-04-24T11:25:03;77597.38;;;29.35
73673;BMP280;61972;19.480;-99.240;2023-04-24T11:27:32;77597.81;;;29.33
73673;BMP280;61972;19.480;-99.240;2023-04-24T11:30:00;77595.59;;;29.31
73673;BMP280;61972;19.480;-99.240;2023-04-24T11:35:02;77607.50;;;29.27
73673;BMP280;61972;19.480;-99.240;2023-04-24T11:37:39;77601.16;;;29.26
73673;BMP280;61972;19.480;-99.240;2023-04-24T11:40:10;77598.38;;;29.24
73673;BMP280;61972;19.480;-99.240;2023-04-24T11:42:37;77612.50;;;29.22
73673;BMP280;61972;19.480;-99.240;2023-04-24T11:45:17;77609.75;;;29.19
73673;BMP280;61972;19.480;-99.240;2023-04-24T11:47:44;77611.81;;;29.19
73673;BMP280;61972;19.480;-99.240;2023-04-24T11:50:16;77611.28;;;29.18
73673;BMP280;61972;19.480;-99.240;2023-04-24T11:52:44;77611.69;;;29.16
73673;BMP280;61972;19.480;-99.240;2023-04-24T11:57:49;77615.16;;;29.12
73673;BMP280;61972;19.480;-99.240;2023-04-24T12:00:33;77615.59;;;29.10
73673;BMP280;61972;19.480;-99.240;2023-04-24T12:03:10;77618.63;;;29.08
73673;BMP280;61972;19.480;-99.240;2023-04-24T12:05:37;77614.34;;;29.07
73673;BMP280;61972;19.480;-99.240;2023-04-24T12:08:04;77615.34;;;29.05
73673;BMP280;61972;19.480;-99.240;2023-04-24T12:10:32;77613.09;;;29.03
73673;BMP280;61972;19.480;-99.240;2023-04-24T12:12:59;77625.16;;;29.02
73673;BMP280;61972;19.480;-99.240;2023-04-24T12:15:26;77629.31;;;29.01
73673;BMP280;61972;19.480;-99.240;2023-04-24T12:17:54;77625.03;;;28.99
73673;BMP280;61972;19.480;-99.240;2023-04-24T12:20:28;77622.81;;;28.97
73673;BMP280;61972;19.480;-99.240;2023-04-24T12:22:56;77615.91;;;28.96
73673;BMP280;61972;19.480;-99.240;2023-04-24T12:25:25;77619.50;;;28.94
73673;BMP280;61972;19.480;-99.240;2023-04-24T12:30:35;77619.38;;;28.92
73673;BMP280;61972;19.480;-99.240;2023-04-24T12:33:04;77620.88;;;28.91
73673;BMP280;61972;19.480;-99.240;2023-04-24T12:35:32;77618.69;;;28.89
73673;BMP280;61972;19.480;-99.240;2023-04-24T12:38:11;77622.81;;;28.88
73673;BMP280;61972;19.480;-99.240;2023-04-24T12:40:41;77631.13;;;28.86
73673;BMP280;61972;19.480;-99.240;2023-04-24T12:43:15;77636.81;;;28.83
73673;BMP280;61972;19.480;-99.240;2023-04-24T12:45:41;77636.69;;;28.81
73673;BMP280;61972;19.480;-99.240;2023-04-24T12:48:07;77641.94;;;28.81
73673;BMP280;61972;19.480;-99.240;2023-04-24T12:50:34;77642.34;;;28.79
73673;BMP280;61972;19.480;-99.240;2023-04-24T12:53:00;77644.44;;;28.78
73673;BMP280;61972;19.480;-99.240;2023-04-24T12:55:26;77653.84;;;28.77
73673;BMP280;61972;19.480;-99.240;2023-04-24T12:57:52;77646.91;;;28.76
73673;BMP280;61972;19.480;-99.240;2023-04-24T13:00:20;77645.84;;;28.75
73673;BMP280;61972;19.480;-99.240;2023-04-24T13:02:47;77652.03;;;28.73
73673;BMP280;61972;19.480;-99.240;2023-04-24T13:05:13;77652.47;;;28.71
73673;BMP280;61972;19.480;-99.240;2023-04-24T13:07:39;77650.25;;;28.69
73673;BMP280;61972;19.480;-99.240;2023-04-24T13:10:07;77651.09;;;28.65
73673;BMP280;61972;19.480;-99.240;2023-04-24T13:12:34;77650.94;;;28.62
73673;BMP280;61972;19.480;-99.240;2023-04-24T13:15:00;77657.59;;;28.59
73673;BMP280;61972;19.480;-99.240;2023-04-24T13:17:26;77662.16;;;28.56
73673;BMP280;61972;19.480;-99.240;2023-04-24T13:19:54;77656.75;;;28.53
73673;BMP280;61972;19.480;-99.240;2023-04-24T13:22:21;77668.66;;;28.50
73673;BMP280;61972;19.480;-99.240;2023-04-24T13:24:47;77660.63;;;28.47
73673;BMP280;61972;19.480;-99.240;2023-04-24T13:27:16;77671.00;;;28.44
73673;BMP280;61972;19.480;-99.240;2023-04-24T13:29:42;77672.94;;;28.41
73673;BMP280;61972;19.480;-99.240;2023-04-24T13:32:09;77673.34;;;28.39
73673;BMP280;61972;19.480;-99.240;2023-04-24T13:34:35;77676.78;;;28.35
73673;BMP280;61972;19.480;-99.240;2023-04-24T13:42:23;77683.72;;;28.27
73673;BMP280;61972;19.480;-99.240;2023-04-24T13:44:49;77682.03;;;28.25
73673;BMP280;61972;19.480;-99.240;2023-04-24T13:47:16;77685.63;;;28.24
73673;BMP280;61972;19.480;-99.240;2023-04-24T13:49:42;77686.06;;;28.22
73673;BMP280;61972;19.480;-99.240;2023-04-24T13:52:08;77687.00;;;28.20
73673;BMP280;61972;19.480;-99.240;2023-04-24T13:54:36;77695.31;;;28.18
73673;BMP280;61972;19.480;-99.240;2023-04-24T13:57:03;77686.31;;;28.17
73673;BMP280;61972;19.480;-99.240;2023-04-24T13:59:29;77684.66;;;28.16
73673;BMP280;61972;19.480;-99.240;2023-04-24T14:01:55;77687.28;;;28.16
73673;BMP280;61972;19.480;-99.240;2023-04-24T14:04:21;77696.13;;;28.14
73673;BMP280;61972;19.480;-99.240;2023-04-24T14:06:47;77699.16;;;28.12